createdAt,value
2019-05-02T00:04:29.156Z,4.40
2019-05-02T00:09:23.134Z,4.30
2019-05-02T00:14:16.458Z,5.33
2019-05-02T00:19:14.053Z,5.30
2019-05-02T00:24:04.226Z,6.03
2019-05-02T00:28:57.166Z,5.40
2019-05-02T00:33:50.633Z,5.33
2019-05-02T00:38:44.035Z,5.23
2019-05-02T00:43:37.699Z,5.83
2019-05-02T00:48:47.435Z,5.40
2019-05-02T00:53:44.425Z,5.13
2019-05-02T00:58:35.024Z,5.63
2019-05-02T01:03:31.835Z,5.37
2019-05-02T01:08:22.423Z,6.37
2019-05-02T01:13:19.154Z,5.73
2019-05-02T01:18:09.465Z,5.43
2019-05-02T01:23:03.197Z,5.67
2019-05-02T01:28:17.738Z,5.70
2019-05-02T01:33:18.316Z,6.17
2019-05-02T01:38:26.467Z,5.40
2019-05-02T01:43:24.117Z,5.63
2019-05-02T01:48:14.358Z,5.47
2019-05-02T01:53:07.992Z,6.07
2019-05-02T01:58:01.361Z,6.67
2019-05-02T02:02:55.062Z,6.80
2019-05-02T02:07:50.885Z,6.63
2019-05-02T02:13:02.221Z,6.00
2019-05-02T02:17:35.311Z,7.37
2019-05-02T02:22:39.257Z,7.20
2019-05-02T02:27:30.852Z,6.60
2019-05-02T02:32:26.787Z,7.90
2019-05-02T02:37:17.632Z,7.57
2019-05-02T02:42:11.253Z,7.17
2019-05-02T02:47:12.263Z,6.17
2019-05-02T02:52:04.852Z,7.20
2019-05-02T02:56:52.608Z,7.33
2019-05-02T03:01:46.048Z,7.33
2019-05-02T03:06:45.175Z,7.70
2019-05-02T03:11:38.609Z,7.27
2019-05-02T03:16:32.341Z,7.20
2019-05-02T03:21:26.023Z,7.30
2019-05-02T03:26:19.705Z,7.37
2019-05-02T03:31:24.386Z,7.57
2019-05-02T03:36:25.912Z,7.57
2019-05-02T03:40:59.978Z,7.33
2019-05-02T03:45:53.349Z,7.53
2019-05-02T03:50:46.677Z,7.37
2019-05-02T03:55:40.307Z,7.60
2019-05-02T04:00:33.974Z,8.33
2019-05-02T04:05:27.349Z,8.10
2019-05-02T04:10:46.021Z,8.13
2019-05-02T04:15:40.089Z,7.90
2019-05-02T04:20:33.907Z,7.17
2019-05-02T04:25:33.343Z,7.33
2019-05-02T04:30:20.940Z,7.37
2019-05-02T04:35:14.278Z,7.40
2019-05-02T04:40:11.850Z,7.43
2019-05-02T04:45:21.165Z,7.57
2019-05-02T04:49:54.467Z,7.63
2019-05-02T04:54:48.796Z,8.10
2019-05-02T04:59:41.416Z,7.90
2019-05-02T05:04:42.026Z,8.30
2019-05-02T05:09:28.387Z,7.93
2019-05-02T05:14:21.730Z,8.30
2019-05-02T05:19:15.358Z,8.23
2019-05-02T05:24:25.035Z,8.20
2019-05-02T05:29:19.263Z,8.60
2019-05-02T05:34:10.778Z,8.77
2019-05-02T05:39:08.615Z,10.10
2019-05-02T05:43:58.008Z,8.90
2019-05-02T05:48:51.319Z,9.60
2019-05-02T05:53:44.662Z,9.93
2019-05-02T05:58:39.805Z,9.50
2019-05-02T06:03:33.979Z,9.73
2019-05-02T06:08:24.823Z,8.90
2019-05-02T06:13:18.525Z,9.37
2019-05-02T06:18:11.871Z,9.37
2019-05-02T06:23:05.166Z,8.83
2019-05-02T06:28:00.235Z,9.70
2019-05-02T06:32:55.050Z,13.80
2019-05-02T06:37:49.579Z,12.93
2019-05-02T06:42:38.649Z,9.83
2019-05-02T06:47:36.058Z,11.50
2019-05-02T06:52:27.172Z,10.37
2019-05-02T06:57:23.610Z,11.43
2019-05-02T07:02:12.223Z,9.73
2019-05-02T07:07:05.916Z,10.77
2019-05-02T07:12:01.495Z,10.97
2019-05-02T07:16:57.436Z,13.03
2019-05-02T07:21:53.220Z,12.17
2019-05-02T07:26:44.034Z,12.37
2019-05-02T07:31:37.338Z,13.63
2019-05-02T07:36:31.174Z,12.83
2019-05-02T07:41:28.576Z,11.57
2019-05-02T07:46:21.097Z,13.30
2019-05-02T07:51:11.321Z,14.33
2019-05-02T07:56:04.676Z,13.00
2019-05-02T08:00:58.593Z,14.07
2019-05-02T08:05:54.442Z,14.47
2019-05-02T08:10:45.813Z,13.80
2019-05-02T08:15:39.134Z,13.97
2019-05-02T08:20:32.531Z,12.90
2019-05-02T08:25:25.821Z,15.13
2019-05-02T08:30:24.574Z,15.63
2019-05-02T08:35:45.641Z,15.33
2019-05-02T08:40:42.435Z,15.77
2019-05-02T08:45:33.166Z,15.30
2019-05-02T08:50:27.209Z,15.37
2019-05-02T08:55:19.292Z,16.10
2019-05-02T09:00:13.060Z,14.03
2019-05-02T09:05:06.413Z,14.40
2019-05-02T09:10:00.207Z,14.70
2019-05-02T09:14:53.126Z,12.20
2019-05-02T09:19:59.524Z,12.57
2019-05-02T09:24:43.026Z,10.90
2019-05-02T09:29:37.386Z,12.33
2019-05-02T09:34:27.036Z,12.37
2019-05-02T09:39:22.510Z,13.00
2019-05-02T09:44:18.568Z,12.67
2019-05-02T09:49:13.407Z,11.53
2019-05-02T09:54:02.631Z,11.57
2019-05-02T09:58:55.386Z,10.23
2019-05-02T10:03:47.586Z,11.57
2019-05-02T10:08:43.539Z,11.00
2019-05-02T10:13:34.222Z,11.63
2019-05-02T10:18:30.241Z,12.10
2019-05-02T10:23:23.224Z,11.83
2019-05-02T10:28:14.479Z,11.27
2019-05-02T10:33:07.787Z,11.30
2019-05-02T10:38:02.522Z,12.40
2019-05-02T10:42:54.550Z,11.50
2019-05-02T10:47:48.261Z,11.67
2019-05-02T10:52:42.528Z,11.60
2019-05-02T10:57:35.365Z,11.10
2019-05-02T11:02:53.674Z,10.83
2019-05-02T11:07:47.417Z,11.13
2019-05-02T11:13:03.284Z,9.77
2019-05-02T11:17:56.796Z,9.43
2019-05-02T11:22:52.630Z,8.73
2019-05-02T11:27:43.558Z,8.73
2019-05-02T11:32:36.905Z,7.80
2019-05-02T11:37:32.706Z,8.60
2019-05-02T11:42:27.181Z,7.87
2019-05-02T11:47:21.821Z,7.97
2019-05-02T11:52:11.875Z,10.20
2019-05-02T11:57:04.191Z,9.40
2019-05-02T12:02:03.843Z,10.17
2019-05-02T12:07:01.567Z,10.47
2019-05-02T12:11:56.418Z,11.97
2019-05-02T12:16:44.984Z,12.63
2019-05-02T12:21:39.317Z,10.73
2019-05-02T12:26:32.526Z,11.13
2019-05-02T12:31:25.937Z,11.43
2019-05-02T12:36:19.273Z,11.50
2019-05-02T12:41:20.318Z,12.40
2019-05-02T12:46:06.181Z,12.57
2019-05-02T12:50:59.606Z,16.93
2019-05-02T12:55:53.318Z,14.50
2019-05-02T13:00:46.673Z,8.20
2019-05-02T13:05:39.997Z,5.63
2019-05-02T13:10:42.293Z,4.00
2019-05-02T13:15:34.185Z,3.37
2019-05-02T13:20:29.410Z,2.93
2019-05-02T13:25:22.491Z,2.20
2019-05-02T13:30:24.331Z,2.70
2019-05-02T13:35:27.878Z,2.80
2019-05-02T13:40:27.558Z,3.07
2019-05-02T13:45:43.206Z,3.10
2019-05-02T13:50:36.676Z,2.70
2019-05-02T13:55:32.785Z,2.90
2019-05-02T14:00:34.778Z,2.87
2019-05-02T14:05:28.095Z,3.03
2019-05-02T14:10:32.198Z,3.17
2019-05-02T14:15:25.353Z,2.83
2019-05-02T14:20:18.903Z,3.20
2019-05-02T14:25:12.381Z,3.37
2019-05-02T14:30:06.273Z,3.27
2019-05-02T14:35:04.909Z,3.13
2019-05-02T14:40:04.849Z,3.03
2019-05-02T14:45:08.959Z,3.00
2019-05-02T14:49:52.234Z,2.97
2019-05-02T14:54:47.857Z,3.43
2019-05-02T14:59:38.711Z,2.90
2019-05-02T15:04:32.247Z,3.10
2019-05-02T15:09:26.994Z,3.07
2019-05-02T15:14:20.774Z,3.03
2019-05-02T15:19:12.599Z,3.10
2019-05-02T15:24:05.498Z,3.27
2019-05-02T15:28:58.983Z,3.40
2019-05-02T15:34:01.580Z,3.07
2019-05-02T15:38:52.724Z,2.90
2019-05-02T15:43:49.059Z,2.93
2019-05-02T15:48:38.313Z,3.23
2019-05-02T15:53:52.489Z,2.80
2019-05-02T15:58:42.572Z,2.40
2019-05-02T16:03:48.561Z,2.93
2019-05-02T16:08:48.013Z,3.10
2019-05-02T16:13:42.410Z,2.87
2019-05-02T16:18:36.100Z,2.83
2019-05-02T16:23:32.843Z,2.60
2019-05-02T16:28:21.668Z,2.70
2019-05-02T16:33:19.679Z,2.30
2019-05-02T16:38:08.676Z,2.47
2019-05-02T16:43:02.822Z,2.70
2019-05-02T16:48:00.504Z,2.57
2019-05-02T16:52:49.141Z,2.90
2019-05-02T16:57:42.500Z,2.60
2019-05-02T17:02:37.965Z,2.23
2019-05-02T17:07:39.482Z,2.67
2019-05-02T17:12:31.838Z,2.40
2019-05-02T17:17:26.560Z,2.27
2019-05-02T17:22:21.954Z,2.00
2019-05-02T17:27:12.991Z,2.00
2019-05-02T17:32:04.335Z,1.87
2019-05-02T17:36:59.283Z,1.63
2019-05-02T17:41:52.397Z,2.07
2019-05-02T17:46:44.302Z,2.00
2019-05-02T17:52:11.238Z,1.93
2019-05-02T17:57:03.149Z,2.00
2019-05-02T18:01:56.817Z,1.80
2019-05-02T18:06:53.674Z,1.83
2019-05-02T18:11:44.362Z,1.97
2019-05-02T18:16:39.390Z,2.10
2019-05-02T18:21:32.374Z,2.20
2019-05-02T18:26:25.137Z,2.10
2019-05-02T18:31:18.526Z,1.80
2019-05-02T18:36:12.205Z,1.70
2019-05-02T18:41:06.592Z,1.87
2019-05-02T18:46:05.994Z,1.90
2019-05-02T18:50:52.767Z,1.73
2019-05-02T18:55:45.652Z,1.40
2019-05-02T19:00:39.630Z,1.87
2019-05-02T19:05:32.590Z,1.90
2019-05-02T19:10:26.122Z,1.73
2019-05-02T19:15:21.508Z,1.70
2019-05-02T19:20:32.586Z,1.70
2019-05-02T19:25:24.194Z,1.70
2019-05-02T19:30:18.883Z,1.90
2019-05-02T19:35:11.792Z,2.20
2019-05-02T19:40:05.155Z,2.00
2019-05-02T19:45:03.722Z,2.53
2019-05-02T19:49:54.383Z,2.03
2019-05-02T19:54:45.842Z,2.10
2019-05-02T19:59:39.574Z,2.33
2019-05-02T20:04:32.949Z,2.30
2019-05-02T20:09:26.645Z,1.77
2019-05-02T20:14:21.682Z,2.13
2019-05-02T20:19:17.312Z,2.17
2019-05-02T20:24:09.169Z,1.90
2019-05-02T20:29:01.996Z,2.00
2019-05-02T20:33:53.860Z,1.90
2019-05-02T20:38:47.588Z,2.17
2019-05-02T20:43:42.909Z,1.63
2019-05-02T20:48:34.335Z,2.00
2019-05-02T20:53:31.121Z,1.80
2019-05-02T20:58:21.998Z,2.00
2019-05-02T21:03:14.380Z,1.80
2019-05-02T21:08:26.067Z,1.80
2019-05-02T21:13:19.382Z,2.00
2019-05-02T21:18:12.703Z,1.77
2019-05-02T21:23:06.026Z,1.83
2019-05-02T21:27:59.565Z,1.90
2019-05-02T21:32:52.893Z,2.37
2019-05-02T21:37:46.235Z,2.00
2019-05-02T21:42:39.558Z,2.17
2019-05-02T21:47:32.993Z,2.00
2019-05-02T21:52:54.774Z,1.87
2019-05-02T21:57:48.317Z,2.37
2019-05-02T22:02:41.628Z,2.73
2019-05-02T22:07:35.085Z,1.90
2019-05-02T22:12:28.437Z,2.43
2019-05-02T22:17:21.784Z,2.20
2019-05-02T22:22:15.212Z,2.03
2019-05-02T22:27:08.631Z,2.00
2019-05-02T22:32:02.997Z,1.70
2019-05-02T22:36:55.589Z,2.33
2019-05-02T22:41:49.057Z,1.80
2019-05-02T22:46:45.651Z,2.10
2019-05-02T22:51:39.490Z,1.83
2019-05-02T22:56:33.069Z,2.27
2019-05-02T23:01:26.549Z,1.70
2019-05-02T23:06:20.263Z,2.03
2019-05-02T23:11:13.924Z,2.30
2019-05-02T23:16:07.327Z,2.13
2019-05-02T23:21:02.154Z,2.57
2019-05-02T23:26:00.696Z,2.47
2019-05-02T23:30:54.187Z,1.83
2019-05-02T23:35:47.490Z,2.23
2019-05-02T23:40:42.087Z,2.50
2019-05-02T23:45:34.320Z,2.10
2019-05-02T23:50:27.715Z,2.17
2019-05-02T23:55:22.786Z,2.10
